createdAt,value
2017-12-02T15:18:35.176Z,11.75
2017-12-02T15:21:02.450Z,14.00
2017-12-02T15:23:29.728Z,12.20
2017-12-02T15:25:56.284Z,10.90
2017-12-02T15:28:23.560Z,10.45
2017-12-02T15:30:50.835Z,14.95
2017-12-02T15:33:18.210Z,12.98
2017-12-02T15:35:45.444Z,14.53
2017-12-02T15:38:11.933Z,15.97
2017-12-02T15:40:39.213Z,14.57
2017-12-02T15:43:06.487Z,15.70
2017-12-02T15:45:33.047Z,16.17
2017-12-02T15:48:00.279Z,15.25
2017-12-02T15:50:26.747Z,12.10
2017-12-02T15:52:54.153Z,20.35
2017-12-02T15:55:21.635Z,13.68
2017-12-02T15:57:48.906Z,13.75
2017-12-02T16:00:15.872Z,14.25
2017-12-02T16:02:43.251Z,27.85
2017-12-02T16:05:10.626Z,18.35
2017-12-02T16:07:37.148Z,22.02
2017-12-02T16:10:03.869Z,15.35
2017-12-02T16:12:30.506Z,19.52
2017-12-02T16:14:57.086Z,37.00
2017-12-02T16:17:23.828Z,19.33
2017-12-02T16:19:50.386Z,16.50
2017-12-02T16:22:17.636Z,33.95
2017-12-02T16:24:44.933Z,16.25
2017-12-02T16:27:12.210Z,16.37
2017-12-02T16:29:39.485Z,18.50
2017-12-02T16:32:06.747Z,16.80
2017-12-02T16:34:34.615Z,14.18
2017-12-02T16:37:01.131Z,14.70
2017-12-02T16:39:27.723Z,13.98
2017-12-02T16:41:54.422Z,13.57
2017-12-02T16:44:20.980Z,16.25
2017-12-02T16:46:48.279Z,15.73
2017-12-02T16:49:14.791Z,14.40
2017-12-02T16:51:41.374Z,13.90
2017-12-02T16:54:07.930Z,14.43
2017-12-02T16:56:35.209Z,12.98
2017-12-02T16:59:02.281Z,17.83
2017-12-02T17:01:28.935Z,14.30
2017-12-02T17:03:56.312Z,15.05
2017-12-02T17:06:23.791Z,19.70
2017-12-02T17:08:50.349Z,18.48
2017-12-02T17:11:17.632Z,14.95
2017-12-02T17:13:44.286Z,21.60
2017-12-02T17:16:11.866Z,20.50
2017-12-02T17:18:38.383Z,25.00
2017-12-02T17:21:05.087Z,62.13
2017-12-02T17:23:31.713Z,37.40
2017-12-02T17:25:59.941Z,24.40
2017-12-02T17:28:27.185Z,25.30
2017-12-02T17:30:53.669Z,73.05
2017-12-02T17:33:20.942Z,63.53
2017-12-02T17:35:49.447Z,37.80
2017-12-02T17:38:16.728Z,57.38
2017-12-02T17:40:43.345Z,48.33
2017-12-02T17:43:10.145Z,24.05
2017-12-02T17:45:38.099Z,24.30
2017-12-02T17:48:04.898Z,29.10
2017-12-02T17:50:31.763Z,25.88
2017-12-02T17:52:59.447Z,20.62
2017-12-02T17:55:26.315Z,23.00
2017-12-02T17:57:52.795Z,28.45
2017-12-02T18:00:19.325Z,27.77
2017-12-02T18:02:45.844Z,33.75
2017-12-02T18:05:15.920Z,39.58
2017-12-02T18:07:43.122Z,52.63
2017-12-02T18:10:09.753Z,77.00
2017-12-02T18:12:37.059Z,64.53
2017-12-02T18:15:03.692Z,57.62
2017-12-02T18:17:30.266Z,59.15
2017-12-02T18:19:56.907Z,53.80
2017-12-02T18:22:24.143Z,45.97
2017-12-02T18:24:50.613Z,44.45
2017-12-02T18:27:17.237Z,44.65
2017-12-02T18:29:43.754Z,43.35
2017-12-02T18:32:10.417Z,43.38
2017-12-02T18:34:37.517Z,40.63
2017-12-02T18:37:04.144Z,35.10
2017-12-02T18:39:30.812Z,33.53
2017-12-02T18:41:57.876Z,34.65
2017-12-02T18:44:25.129Z,33.93
2017-12-02T18:46:52.426Z,31.90
2017-12-02T18:49:19.094Z,32.27
2017-12-02T18:51:45.644Z,29.83
2017-12-02T18:54:13.242Z,29.20
2017-12-02T18:56:39.890Z,29.60
2017-12-02T18:59:06.550Z,31.02
2017-12-02T19:01:33.415Z,30.73
2017-12-02T19:03:59.923Z,31.45
2017-12-02T19:06:26.528Z,34.05
2017-12-02T19:08:53.803Z,33.95
2017-12-02T19:11:21.077Z,34.83
2017-12-02T19:13:47.637Z,37.15
2017-12-02T19:16:14.223Z,36.70
2017-12-02T19:18:40.719Z,36.78
2017-12-02T19:21:07.719Z,35.60
2017-12-02T19:23:34.213Z,42.08
2017-12-02T19:26:03.993Z,36.93
2017-12-02T19:28:31.215Z,35.92
2017-12-02T19:30:57.843Z,38.88
2017-12-02T19:33:24.398Z,37.90
2017-12-02T19:35:51.634Z,35.42
2017-12-02T19:38:18.139Z,32.97
